sensor_id;sensor_type;location;lat;lon;timestamp;P1;durP1;ratioP1;P2;durP2;ratioP2
76403;SDS011;65232;48.358;2.122;2024-03-29T00:00:24;4.35;;;1.13;;
76403;SDS011;65232;48.358;2.122;2024-03-29T00:00:50;4.30;;;0.95;;
76403;SDS011;65232;48.358;2.122;2024-03-29T00:01:15;2.08;;;0.80;;
76403;SDS011;65232;48.358;2.122;2024-03-29T00:01:41;2.97;;;1.00;;
76403;SDS011;65232;48.358;2.122;2024-03-29T00:02:08;3.08;;;1.00;;
76403;SDS011;65232;48.358;2.122;2024-03-29T00:02:34;2.58;;;0.90;;
76403;SDS011;65232;48.358;2.122;2024-03-29T00:02:59;2.15;;;1.10;;
76403;SDS011;65232;48.358;2.122;2024-03-29T00:03:24;3.65;;;1.30;;
76403;SDS011;65232;48.358;2.122;2024-03-29T00:03:50;3.05;;;0.98;;
76403;SDS011;65232;48.358;2.122;2024-03-29T00:04:16;1.70;;;0.82;;
76403;SDS011;65232;48.358;2.122;2024-03-29T00:04:41;4.68;;;1.08;;
76403;SDS011;65232;48.358;2.122;2024-03-29T00:05:07;3.20;;;1.00;;
76403;SDS011;65232;48.358;2.122;2024-03-29T00:05:33;2.53;;;1.25;;
76403;SDS011;65232;48.358;2.122;2024-03-29T00:05:58;2.88;;;1.00;;
76403;SDS011;65232;48.358;2.122;2024-03-29T00:06:24;2.67;;;0.95;;
76403;SDS011;65232;48.358;2.122;2024-03-29T00:06:49;2.28;;;0.75;;
76403;SDS011;65232;48.358;2.122;2024-03-29T00:07:15;1.35;;;0.80;;
76403;SDS011;65232;48.358;2.122;2024-03-29T00:07:40;3.20;;;1.00;;
76403;SDS011;65232;48.358;2.122;2024-03-29T00:08:05;3.63;;;1.05;;
76403;SDS011;65232;48.358;2.122;2024-03-29T00:08:31;2.78;;;1.00;;
76403;SDS011;65232;48.358;2.122;2024-03-29T00:08:56;1.75;;;1.00;;
76403;SDS011;65232;48.358;2.122;2024-03-29T00:09:22;2.50;;;0.90;;
76403;SDS011;65232;48.358;2.122;2024-03-29T00:09:47;2.80;;;1.02;;
76403;SDS011;65232;48.358;2.122;2024-03-29T00:10:13;2.38;;;1.10;;
76403;SDS011;65232;48.358;2.122;2024-03-29T00:10:38;2.08;;;0.90;;
76403;SDS011;65232;48.358;2.122;2024-03-29T00:11:03;2.08;;;0.93;;
76403;SDS011;65232;48.358;2.122;2024-03-29T00:11:29;1.70;;;0.68;;
76403;SDS011;65232;48.358;2.122;2024-03-29T00:11:56;2.22;;;0.80;;
76403;SDS011;65232;48.358;2.122;2024-03-29T00:12:21;3.40;;;1.13;;
76403;SDS011;65232;48.358;2.122;2024-03-29T00:12:47;1.67;;;0.60;;
76403;SDS011;65232;48.358;2.122;2024-03-29T00:13:12;1.45;;;0.80;;
76403;SDS011;65232;48.358;2.122;2024-03-29T00:13:37;3.67;;;0.88;;
76403;SDS011;65232;48.358;2.122;2024-03-29T00:14:03;1.77;;;0.70;;
76403;SDS011;65232;48.358;2.122;2024-03-29T00:14:28;3.97;;;0.95;;
76403;SDS011;65232;48.358;2.122;2024-03-29T00:14:53;1.38;;;0.70;;
76403;SDS011;65232;48.358;2.122;2024-03-29T00:15:20;2.67;;;0.80;;
76403;SDS011;65232;48.358;2.122;2024-03-29T00:15:46;1.02;;;0.70;;
76403;SDS011;65232;48.358;2.122;2024-03-29T00:16:11;1.85;;;0.65;;
76403;SDS011;65232;48.358;2.122;2024-03-29T00:16:37;2.75;;;0.82;;
76403;SDS011;65232;48.358;2.122;2024-03-29T00:17:02;2.53;;;0.80;;
76403;SDS011;65232;48.358;2.122;2024-03-29T00:17:29;1.83;;;0.85;;
76403;SDS011;65232;48.358;2.122;2024-03-29T00:17:54;1.63;;;0.75;;
76403;SDS011;65232;48.358;2.122;2024-03-29T00:18:20;2.63;;;0.75;;
76403;SDS011;65232;48.358;2.122;2024-03-29T00:18:45;1.77;;;0.65;;
76403;SDS011;65232;48.358;2.122;2024-03-29T00:19:10;3.25;;;0.82;;
76403;SDS011;65232;48.358;2.122;2024-03-29T00:19:36;3.00;;;0.82;;
76403;SDS011;65232;48.358;2.122;2024-03-29T00:20:01;1.27;;;0.80;;
76403;SDS011;65232;48.358;2.122;2024-03-29T00:20:28;1.35;;;0.77;;
76403;SDS011;65232;48.358;2.122;2024-03-29T00:20:54;2.75;;;0.93;;
76403;SDS011;65232;48.358;2.122;2024-03-29T00:21:20;0.60;;;0.50;;
76403;SDS011;65232;48.358;2.122;2024-03-29T00:21:45;4.32;;;1.00;;
76403;SDS011;65232;48.358;2.122;2024-03-29T00:22:11;1.70;;;0.82;;
76403;SDS011;65232;48.358;2.122;2024-03-29T00:22:36;3.60;;;0.90;;
76403;SDS011;65232;48.358;2.122;2024-03-29T00:23:01;4.60;;;1.15;;
76403;SDS011;65232;48.358;2.122;2024-03-29T00:23:27;1.90;;;0.80;;
76403;SDS011;65232;48.358;2.122;2024-03-29T00:23:53;5.47;;;1.35;;
76403;SDS011;65232;48.358;2.122;2024-03-29T00:24:18;4.45;;;1.20;;
76403;SDS011;65232;48.358;2.122;2024-03-29T00:24:44;3.17;;;1.02;;
76403;SDS011;65232;48.358;2.122;2024-03-29T00:25:09;2.67;;;0.80;;
76403;SDS011;65232;48.358;2.122;2024-03-29T00:25:34;4.50;;;1.40;;
76403;SDS011;65232;48.358;2.122;2024-03-29T00:26:00;2.38;;;0.70;;
76403;SDS011;65232;48.358;2.122;2024-03-29T00:26:25;2.80;;;0.80;;
76403;SDS011;65232;48.358;2.122;2024-03-29T00:26:50;2.58;;;0.90;;
76403;SDS011;65232;48.358;2.122;2024-03-29T00:27:16;1.98;;;1.23;;
76403;SDS011;65232;48.358;2.122;2024-03-29T00:27:41;3.10;;;1.00;;
76403;SDS011;65232;48.358;2.122;2024-03-29T00:28:09;3.22;;;0.95;;
76403;SDS011;65232;48.358;2.122;2024-03-29T00:28:34;3.05;;;1.00;;
76403;SDS011;65232;48.358;2.122;2024-03-29T00:28:59;1.27;;;0.55;;
76403;SDS011;65232;48.358;2.122;2024-03-29T00:29:25;3.08;;;0.77;;
76403;SDS011;65232;48.358;2.122;2024-03-29T00:29:52;2.72;;;0.90;;
76403;SDS011;65232;48.358;2.122;2024-03-29T00:30:20;3.78;;;1.13;;
76403;SDS011;65232;48.358;2.122;2024-03-29T00:30:45;2.40;;;0.70;;
76403;SDS011;65232;48.358;2.122;2024-03-29T00:31:11;3.67;;;0.88;;
76403;SDS011;65232;48.358;2.122;2024-03-29T00:31:36;1.80;;;0.90;;
76403;SDS011;65232;48.358;2.122;2024-03-29T00:32:01;1.65;;;0.90;;
76403;SDS011;65232;48.358;2.122;2024-03-29T00:32:27;2.58;;;1.20;;
76403;SDS011;65232;48.358;2.122;2024-03-29T00:32:52;1.27;;;0.70;;
76403;SDS011;65232;48.358;2.122;2024-03-29T00:33:17;3.22;;;1.25;;
76403;SDS011;65232;48.358;2.122;2024-03-29T00:33:43;2.53;;;1.15;;
76403;SDS011;65232;48.358;2.122;2024-03-29T00:34:08;4.57;;;1.10;;
76403;SDS011;65232;48.358;2.122;2024-03-29T00:34:33;3.75;;;1.35;;
76403;SDS011;65232;48.358;2.122;2024-03-29T00:34:59;4.45;;;1.38;;
76403;SDS011;65232;48.358;2.122;2024-03-29T00:35:24;2.88;;;1.10;;
76403;SDS011;65232;48.358;2.122;2024-03-29T00:35:49;2.58;;;0.82;;
76403;SDS011;65232;48.358;2.122;2024-03-29T00:36:15;1.92;;;1.10;;
76403;SDS011;65232;48.358;2.122;2024-03-29T00:36:40;4.10;;;1.00;;
76403;SDS011;65232;48.358;2.122;2024-03-29T00:37:06;3.78;;;1.17;;
76403;SDS011;65232;48.358;2.122;2024-03-29T00:37:31;2.47;;;1.00;;
76403;SDS011;65232;48.358;2.122;2024-03-29T00:37:56;2.15;;;1.02;;
76403;SDS011;65232;48.358;2.122;2024-03-29T00:38:22;1.95;;;0.95;;
76403;SDS011;65232;48.358;2.122;2024-03-29T00:38:47;3.97;;;1.10;;
76403;SDS011;65232;48.358;2.122;2024-03-29T00:39:12;2.20;;;1.00;;
76403;SDS011;65232;48.358;2.122;2024-03-29T00:39:38;4.30;;;1.25;;
76403;SDS011;65232;48.358;2.122;2024-03-29T00:40:03;3.42;;;1.00;;
76403;SDS011;65232;48.358;2.122;2024-03-29T00:40:29;3.42;;;1.00;;
76403;SDS011;65232;48.358;2.122;2024-03-29T00:40:54;3.95;;;1.10;;
76403;SDS011;65232;48.358;2.122;2024-03-29T00:41:20;2.67;;;1.00;;
76403;SDS011;65232;48.358;2.122;2024-03-29T00:41:45;3.97;;;1.33;;
76403;SDS011;65232;48.358;2.122;2024-03-29T00:42:11;3.65;;;1.02;;
76403;SDS011;65232;48.358;2.122;2024-03-29T00:42:44;3.58;;;0.95;;
76403;SDS011;65232;48.358;2.122;2024-03-29T00:43:10;1.60;;;0.90;;
76403;SDS011;65232;48.358;2.122;2024-03-29T00:43:35;2.42;;;0.90;;
76403;SDS011;65232;48.358;2.122;2024-03-29T00:44:00;4.03;;;1.02;;
76403;SDS011;65232;48.358;2.122;2024-03-29T00:44:26;1.70;;;0.90;;
76403;SDS011;65232;48.358;2.122;2024-03-29T00:44:51;3.33;;;0.90;;
76403;SDS011;65232;48.358;2.122;2024-03-29T00:45:16;2.45;;;0.82;;
76403;SDS011;65232;48.358;2.122;2024-03-29T00:45:42;5.00;;;1.05;;
76403;SDS011;65232;48.358;2.122;2024-03-29T00:46:07;2.40;;;1.20;;
76403;SDS011;65232;48.358;2.122;2024-03-29T00:46:33;3.03;;;1.25;;
76403;SDS011;65232;48.358;2.122;2024-03-29T00:46:58;2.03;;;0.98;;
76403;SDS011;65232;48.358;2.122;2024-03-29T00:47:24;2.70;;;1.00;;
76403;SDS011;65232;48.358;2.122;2024-03-29T00:47:49;2.40;;;1.10;;
76403;SDS011;65232;48.358;2.122;2024-03-29T00:48:15;4.00;;;1.63;;
76403;SDS011;65232;48.358;2.122;2024-03-29T00:48:42;3.28;;;1.70;;
76403;SDS011;65232;48.358;2.122;2024-03-29T00:49:10;1.70;;;1.00;;
76403;SDS011;65232;48.358;2.122;2024-03-29T00:49:35;3.22;;;1.17;;
76403;SDS011;65232;48.358;2.122;2024-03-29T00:50:01;3.08;;;1.20;;
76403;SDS011;65232;48.358;2.122;2024-03-29T00:50:26;2.88;;;1.42;;
76403;SDS011;65232;48.358;2.122;2024-03-29T00:50:52;2.20;;;1.08;;
76403;SDS011;65232;48.358;2.122;2024-03-29T00:51:17;2.78;;;1.48;;
76403;SDS011;65232;48.358;2.122;2024-03-29T00:51:43;3.55;;;1.58;;
76403;SDS011;65232;48.358;2.122;2024-03-29T00:52:08;3.53;;;1.52;;
76403;SDS011;65232;48.358;2.122;2024-03-29T00:52:33;2.60;;;0.95;;
76403;SDS011;65232;48.358;2.122;2024-03-29T00:52:59;5.43;;;1.35;;
76403;SDS011;65232;48.358;2.122;2024-03-29T00:53:24;2.95;;;1.65;;
76403;SDS011;65232;48.358;2.122;2024-03-29T00:53:49;3.78;;;1.02;;
76403;SDS011;65232;48.358;2.122;2024-03-29T00:54:15;2.47;;;0.90;;
76403;SDS011;65232;48.358;2.122;2024-03-29T00:54:40;2.05;;;1.00;;
76403;SDS011;65232;48.358;2.122;2024-03-29T00:55:06;3.90;;;1.00;;
76403;SDS011;65232;48.358;2.122;2024-03-29T00:55:31;3.17;;;0.93;;
76403;SDS011;65232;48.358;2.122;2024-03-29T00:55:57;3.47;;;1.10;;
76403;SDS011;65232;48.358;2.122;2024-03-29T00:56:22;1.83;;;0.80;;
76403;SDS011;65232;48.358;2.122;2024-03-29T00:56:48;3.72;;;0.90;;
76403;SDS011;65232;48.358;2.122;2024-03-29T00:57:13;2.70;;;1.15;;
76403;SDS011;65232;48.358;2.122;2024-03-29T00:57:40;1.85;;;1.30;;
76403;SDS011;65232;48.358;2.122;2024-03-29T00:58:06;2.47;;;1.20;;
76403;SDS011;65232;48.358;2.122;2024-03-29T00:58:31;2.30;;;1.30;;
76403;SDS011;65232;48.358;2.122;2024-03-29T00:58:56;3.70;;;1.45;;
76403;SDS011;65232;48.358;2.122;2024-03-29T00:59:22;2.67;;;1.17;;
76403;SDS011;65232;48.358;2.122;2024-03-29T00:59:47;3.67;;;1.42;;
76403;SDS011;65232;48.358;2.122;2024-03-29T01:00:13;2.97;;;1.10;;
76403;SDS011;65232;48.358;2.122;2024-03-29T01:00:38;3.25;;;1.00;;
76403;SDS011;65232;48.358;2.122;2024-03-29T01:01:04;2.53;;;0.90;;
76403;SDS011;65232;48.358;2.122;2024-03-29T01:01:30;2.42;;;0.90;;
76403;SDS011;65232;48.358;2.122;2024-03-29T01:01:55;1.60;;;0.80;;
76403;SDS011;65232;48.358;2.122;2024-03-29T01:02:20;2.80;;;1.17;;
76403;SDS011;65232;48.358;2.122;2024-03-29T01:02:46;2.95;;;1.00;;
76403;SDS011;65232;48.358;2.122;2024-03-29T01:03:11;1.58;;;0.70;;
76403;SDS011;65232;48.358;2.122;2024-03-29T01:03:36;4.05;;;0.93;;
76403;SDS011;65232;48.358;2.122;2024-03-29T01:04:02;3.33;;;1.00;;
76403;SDS011;65232;48.358;2.122;2024-03-29T01:04:27;4.00;;;1.08;;
76403;SDS011;65232;48.358;2.122;2024-03-29T01:04:52;2.45;;;0.85;;
76403;SDS011;65232;48.358;2.122;2024-03-29T01:05:18;1.40;;;0.90;;
76403;SDS011;65232;48.358;2.122;2024-03-29T01:05:43;3.30;;;0.80;;
76403;SDS011;65232;48.358;2.122;2024-03-29T01:06:09;3.40;;;0.90;;
76403;SDS011;65232;48.358;2.122;2024-03-29T01:06:34;3.80;;;0.80;;
76403;SDS011;65232;48.358;2.122;2024-03-29T01:07:00;2.05;;;0.70;;
76403;SDS011;65232;48.358;2.122;2024-03-29T01:07:25;1.50;;;0.80;;
76403;SDS011;65232;48.358;2.122;2024-03-29T01:07:50;2.00;;;0.82;;
76403;SDS011;65232;48.358;2.122;2024-03-29T01:08:16;2.75;;;0.80;;
76403;SDS011;65232;48.358;2.122;2024-03-29T01:08:41;3.63;;;1.00;;
76403;SDS011;65232;48.358;2.122;2024-03-29T01:09:07;1.38;;;0.70;;
76403;SDS011;65232;48.358;2.122;2024-03-29T01:09:36;1.60;;;0.70;;
76403;SDS011;65232;48.358;2.122;2024-03-29T01:10:01;2.00;;;0.80;;
76403;SDS011;65232;48.358;2.122;2024-03-29T01:10:27;3.47;;;1.00;;
76403;SDS011;65232;48.358;2.122;2024-03-29T01:10:52;2.15;;;1.08;;
76403;SDS011;65232;48.358;2.122;2024-03-29T01:11:18;3.22;;;0.98;;
76403;SDS011;65232;48.358;2.122;2024-03-29T01:11:43;3.95;;;0.90;;
76403;SDS011;65232;48.358;2.122;2024-03-29T01:12:09;1.15;;;0.57;;
76403;SDS011;65232;48.358;2.122;2024-03-29T01:13:01;2.55;;;0.82;;
76403;SDS011;65232;48.358;2.122;2024-03-29T01:13:27;1.30;;;0.65;;
76403;SDS011;65232;48.358;2.122;2024-03-29T01:13:52;1.98;;;0.70;;
76403;SDS011;65232;48.358;2.122;2024-03-29T01:14:18;2.00;;;0.90;;
76403;SDS011;65232;48.358;2.122;2024-03-29T01:14:43;2.63;;;0.75;;
76403;SDS011;65232;48.358;2.122;2024-03-29T01:15:08;1.98;;;0.80;;
76403;SDS011;65232;48.358;2.122;2024-03-29T01:15:34;4.57;;;1.00;;
76403;SDS011;65232;48.358;2.122;2024-03-29T01:15:59;1.70;;;0.57;;
76403;SDS011;65232;48.358;2.122;2024-03-29T01:16:25;2.25;;;0.70;;
76403;SDS011;65232;48.358;2.122;2024-03-29T01:16:50;2.42;;;0.70;;
76403;SDS011;65232;48.358;2.122;2024-03-29T01:17:15;1.25;;;0.57;;
76403;SDS011;65232;48.358;2.122;2024-03-29T01:17:41;1.10;;;0.73;;
76403;SDS011;65232;48.358;2.122;2024-03-29T01:18:06;2.17;;;0.65;;
76403;SDS011;65232;48.358;2.122;2024-03-29T01:18:32;2.38;;;0.80;;
76403;SDS011;65232;48.358;2.122;2024-03-29T01:18:58;2.38;;;1.10;;
76403;SDS011;65232;48.358;2.122;2024-03-29T01:19:24;1.48;;;0.85;;
76403;SDS011;65232;48.358;2.122;2024-03-29T01:19:49;3.08;;;0.90;;
76403;SDS011;65232;48.358;2.122;2024-03-29T01:20:14;4.10;;;1.00;;
76403;SDS011;65232;48.358;2.122;2024-03-29T01:20:40;2.25;;;0.88;;
76403;SDS011;65232;48.358;2.122;2024-03-29T01:21:05;2.70;;;0.70;;
76403;SDS011;65232;48.358;2.122;2024-03-29T01:21:31;1.92;;;0.80;;
76403;SDS011;65232;48.358;2.122;2024-03-29T01:21:56;1.92;;;0.80;;
76403;SDS011;65232;48.358;2.122;2024-03-29T01:22:21;1.85;;;0.65;;
76403;SDS011;65232;48.358;2.122;2024-03-29T01:22:47;1.95;;;0.70;;
76403;SDS011;65232;48.358;2.122;2024-03-29T01:23:12;2.22;;;0.80;;
76403;SDS011;65232;48.358;2.122;2024-03-29T01:23:38;1.77;;;0.65;;
76403;SDS011;65232;48.358;2.122;2024-03-29T01:24:03;1.38;;;0.70;;
76403;SDS011;65232;48.358;2.122;2024-03-29T01:24:55;3.08;;;1.13;;
76403;SDS011;65232;48.358;2.122;2024-03-29T01:25:21;2.92;;;0.80;;
76403;SDS011;65232;48.358;2.122;2024-03-29T01:25:46;2.90;;;1.00;;
76403;SDS011;65232;48.358;2.122;2024-03-29T01:26:11;3.33;;;0.88;;
76403;SDS011;65232;48.358;2.122;2024-03-29T01:26:37;1.63;;;0.88;;
76403;SDS011;65232;48.358;2.122;2024-03-29T01:27:03;2.97;;;0.80;;
76403;SDS011;65232;48.358;2.122;2024-03-29T01:27:31;2.88;;;0.70;;
76403;SDS011;65232;48.358;2.122;2024-03-29T01:27:56;2.55;;;1.00;;
76403;SDS011;65232;48.358;2.122;2024-03-29T01:28:22;1.73;;;0.70;;
76403;SDS011;65232;48.358;2.122;2024-03-29T01:28:47;2.63;;;0.80;;
76403;SDS011;65232;48.358;2.122;2024-03-29T01:29:13;2.35;;;0.65;;
76403;SDS011;65232;48.358;2.122;2024-03-29T01:29:38;1.85;;;0.80;;
76403;SDS011;65232;48.358;2.122;2024-03-29T01:30:03;3.17;;;0.82;;
76403;SDS011;65232;48.358;2.122;2024-03-29T01:30:29;2.97;;;1.05;;
76403;SDS011;65232;48.358;2.122;2024-03-29T01:30:55;1.63;;;0.80;;
76403;SDS011;65232;48.358;2.122;2024-03-29T01:31:21;1.10;;;0.73;;
76403;SDS011;65232;48.358;2.122;2024-03-29T01:31:47;1.98;;;0.82;;
76403;SDS011;65232;48.358;2.122;2024-03-29T01:32:13;1.67;;;1.10;;
76403;SDS011;65232;48.358;2.122;2024-03-29T01:32:38;1.88;;;1.00;;
76403;SDS011;65232;48.358;2.122;2024-03-29T01:33:03;3.45;;;0.80;;
76403;SDS011;65232;48.358;2.122;2024-03-29T01:33:29;1.48;;;0.77;;
76403;SDS011;65232;48.358;2.122;2024-03-29T01:33:57;2.90;;;1.00;;
76403;SDS011;65232;48.358;2.122;2024-03-29T01:34:23;2.17;;;0.60;;
76403;SDS011;65232;48.358;2.122;2024-03-29T01:34:49;1.35;;;0.60;;
76403;SDS011;65232;48.358;2.122;2024-03-29T01:35:14;2.25;;;1.10;;
76403;SDS011;65232;48.358;2.122;2024-03-29T01:35:39;1.42;;;0.80;;
76403;SDS011;65232;48.358;2.122;2024-03-29T01:36:05;1.70;;;0.77;;
76403;SDS011;65232;48.358;2.122;2024-03-29T01:36:31;2.40;;;0.65;;
76403;SDS011;65232;48.358;2.122;2024-03-29T01:36:56;2.72;;;0.73;;
76403;SDS011;65232;48.358;2.122;2024-03-29T01:37:22;1.70;;;1.05;;
76403;SDS011;65232;48.358;2.122;2024-03-29T01:37:48;2.03;;;0.60;;
76403;SDS011;65232;48.358;2.122;2024-03-29T01:38:14;1.52;;;0.77;;
76403;SDS011;65232;48.358;2.122;2024-03-29T01:38:39;1.98;;;0.80;;
76403;SDS011;65232;48.358;2.122;2024-03-29T01:39:05;2.97;;;0.70;;
76403;SDS011;65232;48.358;2.122;2024-03-29T01:39:33;2.42;;;0.77;;
76403;SDS011;65232;48.358;2.122;2024-03-29T01:39:58;1.00;;;0.70;;
76403;SDS011;65232;48.358;2.122;2024-03-29T01:40:24;2.15;;;0.82;;
76403;SDS011;65232;48.358;2.122;2024-03-29T01:40:49;2.72;;;0.70;;
76403;SDS011;65232;48.358;2.122;2024-03-29T01:41:15;0.95;;;0.47;;
76403;SDS011;65232;48.358;2.122;2024-03-29T01:41:40;2.40;;;0.82;;
76403;SDS011;65232;48.358;2.122;2024-03-29T01:42:06;1.50;;;0.60;;
76403;SDS011;65232;48.358;2.122;2024-03-29T01:42:31;1.35;;;0.60;;
76403;SDS011;65232;48.358;2.122;2024-03-29T01:42:56;1.40;;;0.65;;
76403;SDS011;65232;48.358;2.122;2024-03-29T01:43:22;2.33;;;0.60;;
76403;SDS011;65232;48.358;2.122;2024-03-29T01:43:47;3.08;;;0.80;;
76403;SDS011;65232;48.358;2.122;2024-03-29T01:44:12;1.63;;;0.73;;
76403;SDS011;65232;48.358;2.122;2024-03-29T01:44:39;1.05;;;0.60;;
76403;SDS011;65232;48.358;2.122;2024-03-29T01:45:05;2.47;;;0.75;;
76403;SDS011;65232;48.358;2.122;2024-03-29T01:45:31;1.15;;;0.63;;
76403;SDS011;65232;48.358;2.122;2024-03-29T01:45:56;1.45;;;0.75;;
76403;SDS011;65232;48.358;2.122;2024-03-29T01:46:22;2.47;;;0.70;;
76403;SDS011;65232;48.358;2.122;2024-03-29T01:46:48;2.25;;;0.60;;
76403;SDS011;65232;48.358;2.122;2024-03-29T01:47:16;1.08;;;0.63;;
76403;SDS011;65232;48.358;2.122;2024-03-29T01:47:43;2.35;;;0.85;;
76403;SDS011;65232;48.358;2.122;2024-03-29T01:48:08;1.30;;;0.77;;
76403;SDS011;65232;48.358;2.122;2024-03-29T01:48:34;1.17;;;0.55;;
76403;SDS011;65232;48.358;2.122;2024-03-29T01:49:00;2.03;;;0.70;;
76403;SDS011;65232;48.358;2.122;2024-03-29T01:49:26;2.83;;;0.80;;
76403;SDS011;65232;48.358;2.122;2024-03-29T01:49:52;1.70;;;0.60;;
76403;SDS011;65232;48.358;2.122;2024-03-29T01:50:17;1.80;;;0.52;;
76403;SDS011;65232;48.358;2.122;2024-03-29T01:50:43;2.10;;;0.63;;
76403;SDS011;65232;48.358;2.122;2024-03-29T01:51:10;1.88;;;0.80;;
76403;SDS011;65232;48.358;2.122;2024-03-29T01:51:38;1.05;;;0.65;;
76403;SDS011;65232;48.358;2.122;2024-03-29T01:52:07;1.63;;;0.63;;
76403;SDS011;65232;48.358;2.122;2024-03-29T01:52:33;1.88;;;0.70;;
76403;SDS011;65232;48.358;2.122;2024-03-29T01:52:58;1.35;;;0.60;;
76403;SDS011;65232;48.358;2.122;2024-03-29T01:53:24;2.83;;;0.70;;
76403;SDS011;65232;48.358;2.122;2024-03-29T01:53:52;1.38;;;0.70;;
76403;SDS011;65232;48.358;2.122;2024-03-29T01:54:19;1.48;;;0.65;;
76403;SDS011;65232;48.358;2.122;2024-03-29T01:54:44;1.27;;;0.50;;
76403;SDS011;65232;48.358;2.122;2024-03-29T01:55:10;1.55;;;0.60;;
76403;SDS011;65232;48.358;2.122;2024-03-29T01:55:36;0.90;;;0.55;;
76403;SDS011;65232;48.358;2.122;2024-03-29T01:56:02;0.68;;;0.50;;
76403;SDS011;65232;48.358;2.122;2024-03-29T01:56:28;0.98;;;0.60;;
76403;SDS011;65232;48.358;2.122;2024-03-29T01:56:54;0.98;;;0.60;;
76403;SDS011;65232;48.358;2.122;2024-03-29T01:57:20;0.77;;;0.45;;
76403;SDS011;65232;48.358;2.122;2024-03-29T01:57:46;2.17;;;0.65;;
76403;SDS011;65232;48.358;2.122;2024-03-29T01:58:11;1.20;;;0.50;;
76403;SDS011;65232;48.358;2.122;2024-03-29T01:58:38;1.20;;;0.60;;
76403;SDS011;65232;48.358;2.122;2024-03-29T01:59:04;1.00;;;0.40;;
76403;SDS011;65232;48.358;2.122;2024-03-29T01:59:30;1.98;;;0.60;;
76403;SDS011;65232;48.358;2.122;2024-03-29T01:59:57;0.90;;;0.40;;
76403;SDS011;65232;48.358;2.122;2024-03-29T02:00:23;1.95;;;0.70;;
76403;SDS011;65232;48.358;2.122;2024-03-29T02:00:54;1.73;;;0.60;;
76403;SDS011;65232;48.358;2.122;2024-03-29T02:01:22;2.08;;;0.60;;
76403;SDS011;65232;48.358;2.122;2024-03-29T02:01:49;1.80;;;0.47;;
76403;SDS011;65232;48.358;2.122;2024-03-29T02:02:15;1.52;;;0.55;;
76403;SDS011;65232;48.358;2.122;2024-03-29T02:02:41;1.55;;;0.50;;
76403;SDS011;65232;48.358;2.122;2024-03-29T02:03:06;0.30;;;0.30;;
76403;SDS011;65232;48.358;2.122;2024-03-29T02:03:38;1.48;;;0.55;;
76403;SDS011;65232;48.358;2.122;2024-03-29T02:04:04;0.93;;;0.40;;
76403;SDS011;65232;48.358;2.122;2024-03-29T02:04:30;0.68;;;0.40;;
76403;SDS011;65232;48.358;2.122;2024-03-29T02:04:55;1.27;;;0.50;;
76403;SDS011;65232;48.358;2.122;2024-03-29T02:05:22;2.47;;;0.40;;
76403;SDS011;65232;48.358;2.122;2024-03-29T02:05:50;0.52;;;0.47;;
76403;SDS011;65232;48.358;2.122;2024-03-29T02:06:18;1.90;;;0.40;;
76403;SDS011;65232;48.358;2.122;2024-03-29T02:06:44;0.95;;;0.50;;
76403;SDS011;65232;48.358;2.122;2024-03-29T02:07:10;1.98;;;0.73;;
76403;SDS011;65232;48.358;2.122;2024-03-29T02:07:35;1.38;;;0.55;;
76403;SDS011;65232;48.358;2.122;2024-03-29T02:08:02;1.77;;;0.65;;
76403;SDS011;65232;48.358;2.122;2024-03-29T02:08:29;1.92;;;0.60;;
76403;SDS011;65232;48.358;2.122;2024-03-29T02:08:54;1.38;;;0.30;;
76403;SDS011;65232;48.358;2.122;2024-03-29T02:09:20;3.10;;;0.63;;
76403;SDS011;65232;48.358;2.122;2024-03-29T02:09:45;1.42;;;0.30;;
76403;SDS011;65232;48.358;2.122;2024-03-29T02:10:10;1.05;;;0.45;;
76403;SDS011;65232;48.358;2.122;2024-03-29T02:10:38;0.75;;;0.40;;
76403;SDS011;65232;48.358;2.122;2024-03-29T02:11:03;0.60;;;0.40;;
76403;SDS011;65232;48.358;2.122;2024-03-29T02:11:29;0.70;;;0.50;;
76403;SDS011;65232;48.358;2.122;2024-03-29T02:11:54;1.85;;;0.50;;
76403;SDS011;65232;48.358;2.122;2024-03-29T02:12:20;1.20;;;0.50;;
76403;SDS011;65232;48.358;2.122;2024-03-29T02:12:45;0.80;;;0.52;;
76403;SDS011;65232;48.358;2.122;2024-03-29T02:13:10;1.38;;;0.50;;
76403;SDS011;65232;48.358;2.122;2024-03-29T02:13:36;1.10;;;0.45;;
76403;SDS011;65232;48.358;2.122;2024-03-29T02:14:03;0.88;;;0.55;;
76403;SDS011;65232;48.358;2.122;2024-03-29T02:14:30;0.63;;;0.30;;
76403;SDS011;65232;48.358;2.122;2024-03-29T02:14:56;0.30;;;0.30;;
76403;SDS011;65232;48.358;2.122;2024-03-29T02:15:23;1.38;;;0.60;;
76403;SDS011;65232;48.358;2.122;2024-03-29T02:15:48;1.58;;;0.63;;
76403;SDS011;65232;48.358;2.122;2024-03-29T02:16:14;1.10;;;0.30;;
76403;SDS011;65232;48.358;2.122;2024-03-29T02:16:39;0.82;;;0.30;;
76403;SDS011;65232;48.358;2.122;2024-03-29T02:17:04;0.50;;;0.40;;
76403;SDS011;65232;48.358;2.122;2024-03-29T02:17:30;0.55;;;0.30;;
76403;SDS011;65232;48.358;2.122;2024-03-29T02:17:55;0.77;;;0.50;;
76403;SDS011;65232;48.358;2.122;2024-03-29T02:18:21;0.82;;;0.40;;
76403;SDS011;65232;48.358;2.122;2024-03-29T02:18:46;1.00;;;0.50;;
76403;SDS011;65232;48.358;2.122;2024-03-29T02:19:11;1.63;;;0.40;;
76403;SDS011;65232;48.358;2.122;2024-03-29T02:19:37;0.60;;;0.40;;
76403;SDS011;65232;48.358;2.122;2024-03-29T02:20:02;0.65;;;0.40;;
76403;SDS011;65232;48.358;2.122;2024-03-29T02:20:28;0.82;;;0.40;;
76403;SDS011;65232;48.358;2.122;2024-03-29T02:21:19;0.45;;;0.30;;
76403;SDS011;65232;48.358;2.122;2024-03-29T02:21:45;0.75;;;0.20;;
76403;SDS011;65232;48.358;2.122;2024-03-29T02:22:14;0.47;;;0.40;;
76403;SDS011;65232;48.358;2.122;2024-03-29T02:22:41;0.60;;;0.30;;
76403;SDS011;65232;48.358;2.122;2024-03-29T02:23:16;1.48;;;0.43;;
76403;SDS011;65232;48.358;2.122;2024-03-29T02:23:44;1.17;;;0.40;;
76403;SDS011;65232;48.358;2.122;2024-03-29T02:24:15;0.95;;;0.40;;
76403;SDS011;65232;48.358;2.122;2024-03-29T02:24:43;0.65;;;0.38;;
76403;SDS011;65232;48.358;2.122;2024-03-29T02:25:09;0.93;;;0.55;;
76403;SDS011;65232;48.358;2.122;2024-03-29T02:25:36;0.63;;;0.40;;
76403;SDS011;65232;48.358;2.122;2024-03-29T02:26:01;0.98;;;0.50;;
76403;SDS011;65232;48.358;2.122;2024-03-29T02:26:27;0.88;;;0.40;;
76403;SDS011;65232;48.358;2.122;2024-03-29T02:26:56;0.80;;;0.50;;
76403;SDS011;65232;48.358;2.122;2024-03-29T02:27:22;0.47;;;0.30;;
76403;SDS011;65232;48.358;2.122;2024-03-29T02:27:47;1.00;;;0.40;;
76403;SDS011;65232;48.358;2.122;2024-03-29T02:28:13;2.15;;;0.57;;
76403;SDS011;65232;48.358;2.122;2024-03-29T02:28:38;1.13;;;0.40;;
76403;SDS011;65232;48.358;2.122;2024-03-29T02:29:03;0.30;;;0.30;;
76403;SDS011;65232;48.358;2.122;2024-03-29T02:29:29;1.92;;;0.50;;
76403;SDS011;65232;48.358;2.122;2024-03-29T02:29:55;1.17;;;0.45;;
76403;SDS011;65232;48.358;2.122;2024-03-29T02:30:20;0.57;;;0.30;;
76403;SDS011;65232;48.358;2.122;2024-03-29T02:30:46;0.50;;;0.40;;
76403;SDS011;65232;48.358;2.122;2024-03-29T02:31:11;0.75;;;0.40;;
76403;SDS011;65232;48.358;2.122;2024-03-29T02:31:36;0.88;;;0.40;;
76403;SDS011;65232;48.358;2.122;2024-03-29T02:32:04;1.05;;;0.40;;
76403;SDS011;65232;48.358;2.122;2024-03-29T02:32:30;0.63;;;0.40;;
76403;SDS011;65232;48.358;2.122;2024-03-29T02:32:56;1.55;;;0.40;;
76403;SDS011;65232;48.358;2.122;2024-03-29T02:33:22;1.38;;;0.50;;
76403;SDS011;65232;48.358;2.122;2024-03-29T02:33:47;1.27;;;0.75;;
76403;SDS011;65232;48.358;2.122;2024-03-29T02:34:13;1.40;;;0.40;;
76403;SDS011;65232;48.358;2.122;2024-03-29T02:34:38;0.73;;;0.40;;
76403;SDS011;65232;48.358;2.122;2024-03-29T02:35:04;0.38;;;0.30;;
76403;SDS011;65232;48.358;2.122;2024-03-29T02:35:29;0.35;;;0.30;;
76403;SDS011;65232;48.358;2.122;2024-03-29T02:35:56;0.55;;;0.55;;
76403;SDS011;65232;48.358;2.122;2024-03-29T02:36:21;1.95;;;0.40;;
76403;SDS011;65232;48.358;2.122;2024-03-29T02:36:47;0.73;;;0.30;;
76403;SDS011;65232;48.358;2.122;2024-03-29T02:37:12;0.70;;;0.47;;